sensor_id;sensor_type;location;lat;lon;timestamp;temperature;humidity
2523;DHT22;1272;53.332;9.860;2022-08-20T00:01:40;17.90;99.90
2523;DHT22;1272;53.332;9.860;2022-08-20T00:04:06;17.90;99.90
2523;DHT22;1272;53.332;9.860;2022-08-20T00:06:32;17.90;99.90
2523;DHT22;1272;53.332;9.860;2022-08-20T00:08:58;18.00;99.90
2523;DHT22;1272;53.332;9.860;2022-08-20T00:11:26;18.00;99.90
2523;DHT22;1272;53.332;9.860;2022-08-20T00:13:58;18.00;99.90
2523;DHT22;1272;53.332;9.860;2022-08-20T00:16:26;18.10;99.90
2523;DHT22;1272;53.332;9.860;2022-08-20T00:18:57;18.10;99.90
2523;DHT22;1272;53.332;9.860;2022-08-20T00:21:23;18.10;99.90
2523;DHT22;1272;53.332;9.860;2022-08-20T00:23:51;18.10;99.90
2523;DHT22;1272;53.332;9.860;2022-08-20T00:26:18;18.10;99.90
2523;DHT22;1272;53.332;9.860;2022-08-20T00:28:45;18.10;99.90
2523;DHT22;1272;53.332;9.860;2022-08-20T00:31:13;18.10;99.90
2523;DHT22;1272;53.332;9.860;2022-08-20T00:33:39;18.20;99.90
2523;DHT22;1272;53.332;9.860;2022-08-20T00:36:06;18.10;99.90
2523;DHT22;1272;53.332;9.860;2022-08-20T00:38:37;18.20;99.90
2523;DHT22;1272;53.332;9.860;2022-08-20T00:41:05;18.20;99.90
2523;DHT22;1272;53.332;9.860;2022-08-20T00:43:49;18.20;99.90
2523;DHT22;1272;53.332;9.860;2022-08-20T00:46:25;18.20;99.90
2523;DHT22;1272;53.332;9.860;2022-08-20T00:48:53;18.20;99.90
2523;DHT22;1272;53.332;9.860;2022-08-20T00:53:53;18.30;99.90
2523;DHT22;1272;53.332;9.860;2022-08-20T00:56:19;18.30;99.90
2523;DHT22;1272;53.332;9.860;2022-08-20T00:58:45;18.30;99.90
2523;DHT22;1272;53.332;9.860;2022-08-20T01:01:12;18.30;99.90
2523;DHT22;1272;53.332;9.860;2022-08-20T01:03:39;18.30;99.90
2523;DHT22;1272;53.332;9.860;2022-08-20T01:06:07;18.30;99.90
2523;DHT22;1272;53.332;9.860;2022-08-20T01:08:37;18.30;99.90
2523;DHT22;1272;53.332;9.860;2022-08-20T01:11:03;18.20;99.90
2523;DHT22;1272;53.332;9.860;2022-08-20T01:13:44;18.20;99.90
2523;DHT22;1272;53.332;9.860;2022-08-20T01:16:25;18.20;99.90
2523;DHT22;1272;53.332;9.860;2022-08-20T01:18:53;18.10;99.90
2523;DHT22;1272;53.332;9.860;2022-08-20T01:21:24;18.00;99.90
2523;DHT22;1272;53.332;9.860;2022-08-20T01:24:05;17.90;99.90
2523;DHT22;1272;53.332;9.860;2022-08-20T01:26:39;17.90;99.90
2523;DHT22;1272;53.332;9.860;2022-08-20T01:29:12;17.80;99.90
2523;DHT22;1272;53.332;9.860;2022-08-20T01:31:40;17.80;99.90
2523;DHT22;1272;53.332;9.860;2022-08-20T01:34:09;17.80;99.90
2523;DHT22;1272;53.332;9.860;2022-08-20T01:36:41;17.70;99.90
2523;DHT22;1272;53.332;9.860;2022-08-20T01:39:12;17.70;99.90
2523;DHT22;1272;53.332;9.860;2022-08-20T01:44:10;17.70;99.90
2523;DHT22;1272;53.332;9.860;2022-08-20T01:46:39;17.70;99.90
2523;DHT22;1272;53.332;9.860;2022-08-20T01:49:15;17.70;99.90
2523;DHT22;1272;53.332;9.860;2022-08-20T01:51:41;17.70;99.90
2523;DHT22;1272;53.332;9.860;2022-08-20T01:54:07;17.70;99.90
2523;DHT22;1272;53.332;9.860;2022-08-20T01:56:34;17.70;99.90
2523;DHT22;1272;53.332;9.860;2022-08-20T01:59:04;17.70;99.90
2523;DHT22;1272;53.332;9.860;2022-08-20T02:01:33;17.70;99.90
2523;DHT22;1272;53.332;9.860;2022-08-20T02:04:00;17.60;99.90
2523;DHT22;1272;53.332;9.860;2022-08-20T02:06:28;17.70;99.90
2523;DHT22;1272;53.332;9.860;2022-08-20T02:08:59;17.70;99.90
2523;DHT22;1272;53.332;9.860;2022-08-20T02:11:27;17.70;99.90
2523;DHT22;1272;53.332;9.860;2022-08-20T02:13:54;17.70;99.90
2523;DHT22;1272;53.332;9.860;2022-08-20T02:16:25;17.70;99.90
2523;DHT22;1272;53.332;9.860;2022-08-20T02:18:59;17.70;99.90
2523;DHT22;1272;53.332;9.860;2022-08-20T02:21:28;17.70;99.90
2523;DHT22;1272;53.332;9.860;2022-08-20T02:23:55;17.60;99.90
2523;DHT22;1272;53.332;9.860;2022-08-20T02:26:21;17.60;99.90
2523;DHT22;1272;53.332;9.860;2022-08-20T02:28:49;17.60;99.90
2523;DHT22;1272;53.332;9.860;2022-08-20T02:31:17;17.60;99.90
2523;DHT22;1272;53.332;9.860;2022-08-20T02:33:44;17.60;99.90
2523;DHT22;1272;53.332;9.860;2022-08-20T02:36:10;17.60;99.90
2523;DHT22;1272;53.332;9.860;2022-08-20T02:38:38;17.50;99.90
2523;DHT22;1272;53.332;9.860;2022-08-20T02:41:04;17.50;99.90
2523;DHT22;1272;53.332;9.860;2022-08-20T02:43:30;17.30;99.90
2523;DHT22;1272;53.332;9.860;2022-08-20T02:45:57;17.30;99.90
2523;DHT22;1272;53.332;9.860;2022-08-20T02:48:24;17.40;99.90
2523;DHT22;1272;53.332;9.860;2022-08-20T02:50:57;17.40;99.90
2523;DHT22;1272;53.332;9.860;2022-08-20T02:53:27;17.40;99.90
2523;DHT22;1272;53.332;9.860;2022-08-20T02:55:53;17.40;99.90
2523;DHT22;1272;53.332;9.860;2022-08-20T02:58:19;17.40;99.90
2523;DHT22;1272;53.332;9.860;2022-08-20T03:00:45;17.40;99.90
2523;DHT22;1272;53.332;9.860;2022-08-20T03:03:13;17.30;99.90
2523;DHT22;1272;53.332;9.860;2022-08-20T03:05:41;17.30;99.90
2523;DHT22;1272;53.332;9.860;2022-08-20T03:08:10;17.40;99.90
2523;DHT22;1272;53.332;9.860;2022-08-20T03:10:37;17.40;99.90
2523;DHT22;1272;53.332;9.860;2022-08-20T03:13:04;17.30;99.90
2523;DHT22;1272;53.332;9.860;2022-08-20T03:15:32;17.20;99.90
2523;DHT22;1272;53.332;9.860;2022-08-20T03:17:59;17.20;99.90
2523;DHT22;1272;53.332;9.860;2022-08-20T03:20:26;17.20;99.90
2523;DHT22;1272;53.332;9.860;2022-08-20T03:22:53;17.20;99.90
2523;DHT22;1272;53.332;9.860;2022-08-20T03:25:19;17.20;99.90
2523;DHT22;1272;53.332;9.860;2022-08-20T03:27:45;17.30;99.90
2523;DHT22;1272;53.332;9.860;2022-08-20T03:30:14;17.30;99.90
2523;DHT22;1272;53.332;9.860;2022-08-20T03:32:40;17.30;99.90
2523;DHT22;1272;53.332;9.860;2022-08-20T03:35:09;17.40;99.90
2523;DHT22;1272;53.332;9.860;2022-08-20T03:37:35;17.40;99.90
2523;DHT22;1272;53.332;9.860;2022-08-20T03:40:04;17.50;99.90
2523;DHT22;1272;53.332;9.860;2022-08-20T03:42:30;17.50;99.90
2523;DHT22;1272;53.332;9.860;2022-08-20T03:44:56;17.50;99.90
2523;DHT22;1272;53.332;9.860;2022-08-20T03:47:21;17.60;99.90
2523;DHT22;1272;53.332;9.860;2022-08-20T03:49:48;17.60;96.40
2523;DHT22;1272;53.332;9.860;2022-08-20T03:52:14;17.70;55.10
2523;DHT22;1272;53.332;9.860;2022-08-20T03:54:41;17.70;56.00
2523;DHT22;1272;53.332;9.860;2022-08-20T03:57:12;17.70;39.20
2523;DHT22;1272;53.332;9.860;2022-08-20T03:59:40;17.70;35.80
2523;DHT22;1272;53.332;9.860;2022-08-20T04:02:05;17.70;30.00
2523;DHT22;1272;53.332;9.860;2022-08-20T04:04:31;17.70;99.90
2523;DHT22;1272;53.332;9.860;2022-08-20T04:06:57;17.70;97.40
2523;DHT22;1272;53.332;9.860;2022-08-20T04:09:23;17.70;98.90
2523;DHT22;1272;53.332;9.860;2022-08-20T04:11:48;17.70;99.90
2523;DHT22;1272;53.332;9.860;2022-08-20T04:14:15;17.70;99.90
2523;DHT22;1272;53.332;9.860;2022-08-20T04:16:40;17.70;99.90
2523;DHT22;1272;53.332;9.860;2022-08-20T04:19:06;17.60;99.90
2523;DHT22;1272;53.332;9.860;2022-08-20T04:21:34;17.70;99.90
2523;DHT22;1272;53.332;9.860;2022-08-20T04:24:02;17.70;99.90
2523;DHT22;1272;53.332;9.860;2022-08-20T04:26:29;17.70;99.90
2523;DHT22;1272;53.332;9.860;2022-08-20T04:28:55;17.70;99.90
2523;DHT22;1272;53.332;9.860;2022-08-20T04:31:21;17.70;99.90
2523;DHT22;1272;53.332;9.860;2022-08-20T04:33:56;17.70;99.90
2523;DHT22;1272;53.332;9.860;2022-08-20T04:36:22;17.80;99.90
2523;DHT22;1272;53.332;9.860;2022-08-20T04:38:49;17.80;99.90
2523;DHT22;1272;53.332;9.860;2022-08-20T04:41:14;17.90;99.90
2523;DHT22;1272;53.332;9.860;2022-08-20T04:43:40;17.90;99.90
2523;DHT22;1272;53.332;9.860;2022-08-20T04:46:07;17.90;99.90
2523;DHT22;1272;53.332;9.860;2022-08-20T04:48:38;18.00;99.90
2523;DHT22;1272;53.332;9.860;2022-08-20T04:51:06;17.90;99.90
2523;DHT22;1272;53.332;9.860;2022-08-20T04:53:32;17.90;99.90
2523;DHT22;1272;53.332;9.860;2022-08-20T04:55:59;17.90;99.90
2523;DHT22;1272;53.332;9.860;2022-08-20T04:58:29;17.90;99.90
2523;DHT22;1272;53.332;9.860;2022-08-20T05:00:58;18.00;99.90
2523;DHT22;1272;53.332;9.860;2022-08-20T05:03:24;18.00;99.90
2523;DHT22;1272;53.332;9.860;2022-08-20T05:05:50;18.00;99.90
2523;DHT22;1272;53.332;9.860;2022-08-20T05:08:18;18.00;99.90
2523;DHT22;1272;53.332;9.860;2022-08-20T05:10:44;18.10;99.90
2523;DHT22;1272;53.332;9.860;2022-08-20T05:13:11;18.10;99.90
2523;DHT22;1272;53.332;9.860;2022-08-20T05:15:37;18.10;99.90
2523;DHT22;1272;53.332;9.860;2022-08-20T05:18:05;18.10;99.90
2523;DHT22;1272;53.332;9.860;2022-08-20T05:20:37;18.10;99.90
2523;DHT22;1272;53.332;9.860;2022-08-20T05:23:06;18.10;99.90
2523;DHT22;1272;53.332;9.860;2022-08-20T05:25:32;18.10;99.90
2523;DHT22;1272;53.332;9.860;2022-08-20T05:28:00;18.10;99.90
2523;DHT22;1272;53.332;9.860;2022-08-20T05:30:27;18.10;99.90
2523;DHT22;1272;53.332;9.860;2022-08-20T05:32:59;18.20;99.90
2523;DHT22;1272;53.332;9.860;2022-08-20T05:35:24;18.20;99.90
2523;DHT22;1272;53.332;9.860;2022-08-20T05:37:50;18.30;99.90
2523;DHT22;1272;53.332;9.860;2022-08-20T05:40:16;18.30;99.90
2523;DHT22;1272;53.332;9.860;2022-08-20T05:42:41;18.30;99.90
2523;DHT22;1272;53.332;9.860;2022-08-20T05:45:08;18.40;99.90
2523;DHT22;1272;53.332;9.860;2022-08-20T05:47:38;18.40;99.90
2523;DHT22;1272;53.332;9.860;2022-08-20T05:50:06;18.50;99.90
2523;DHT22;1272;53.332;9.860;2022-08-20T05:52:32;18.60;99.90
2523;DHT22;1272;53.332;9.860;2022-08-20T05:54:58;18.60;99.90
2523;DHT22;1272;53.332;9.860;2022-08-20T05:57:24;18.60;99.90
2523;DHT22;1272;53.332;9.860;2022-08-20T05:59:49;18.60;99.90
2523;DHT22;1272;53.332;9.860;2022-08-20T06:02:15;18.70;99.90
2523;DHT22;1272;53.332;9.860;2022-08-20T06:04:59;18.70;99.90
2523;DHT22;1272;53.332;9.860;2022-08-20T06:07:25;18.80;99.90
2523;DHT22;1272;53.332;9.860;2022-08-20T06:09:51;18.80;99.90
2523;DHT22;1272;53.332;9.860;2022-08-20T06:12:17;18.80;99.90
2523;DHT22;1272;53.332;9.860;2022-08-20T06:14:43;18.90;99.90
2523;DHT22;1272;53.332;9.860;2022-08-20T06:17:17;18.90;99.90
2523;DHT22;1272;53.332;9.860;2022-08-20T06:19:45;18.90;99.90
2523;DHT22;1272;53.332;9.860;2022-08-20T06:22:12;18.90;99.90
2523;DHT22;1272;53.332;9.860;2022-08-20T06:24:37;18.90;99.90
2523;DHT22;1272;53.332;9.860;2022-08-20T06:27:04;18.90;99.90
2523;DHT22;1272;53.332;9.860;2022-08-20T06:29:30;19.00;99.90
2523;DHT22;1272;53.332;9.860;2022-08-20T06:32:00;19.00;99.90
2523;DHT22;1272;53.332;9.860;2022-08-20T06:34:26;19.10;99.90
2523;DHT22;1272;53.332;9.860;2022-08-20T06:36:53;19.10;99.90
2523;DHT22;1272;53.332;9.860;2022-08-20T06:39:19;19.20;99.90
2523;DHT22;1272;53.332;9.860;2022-08-20T06:41:45;19.30;99.90
2523;DHT22;1272;53.332;9.860;2022-08-20T06:44:11;19.30;99.90
2523;DHT22;1272;53.332;9.860;2022-08-20T06:46:37;19.30;99.90
2523;DHT22;1272;53.332;9.860;2022-08-20T06:49:04;19.40;99.90
2523;DHT22;1272;53.332;9.860;2022-08-20T06:51:30;19.40;99.90
2523;DHT22;1272;53.332;9.860;2022-08-20T06:53:56;19.50;99.90
2523;DHT22;1272;53.332;9.860;2022-08-20T06:56:21;19.50;99.90
2523;DHT22;1272;53.332;9.860;2022-08-20T06:58:47;19.60;99.90
2523;DHT22;1272;53.332;9.860;2022-08-20T07:01:14;19.60;99.90
2523;DHT22;1272;53.332;9.860;2022-08-20T07:03:41;19.60;99.90
2523;DHT22;1272;53.332;9.860;2022-08-20T07:06:07;19.70;99.90
2523;DHT22;1272;53.332;9.860;2022-08-20T07:08:34;19.80;99.90
2523;DHT22;1272;53.332;9.860;2022-08-20T07:11:00;19.80;99.90
2523;DHT22;1272;53.332;9.860;2022-08-20T07:13:27;19.90;99.90
2523;DHT22;1272;53.332;9.860;2022-08-20T07:15:54;20.00;99.90
2523;DHT22;1272;53.332;9.860;2022-08-20T07:18:21;20.10;99.90
2523;DHT22;1272;53.332;9.860;2022-08-20T07:20:47;20.20;99.90
2523;DHT22;1272;53.332;9.860;2022-08-20T07:23:13;20.30;99.90
2523;DHT22;1272;53.332;9.860;2022-08-20T07:25:41;20.40;99.90
2523;DHT22;1272;53.332;9.860;2022-08-20T07:28:20;20.50;99.90
2523;DHT22;1272;53.332;9.860;2022-08-20T07:30:47;20.60;99.90
2523;DHT22;1272;53.332;9.860;2022-08-20T07:33:31;20.70;99.90
2523;DHT22;1272;53.332;9.860;2022-08-20T07:35:59;20.80;99.90
2523;DHT22;1272;53.332;9.860;2022-08-20T07:38:27;21.00;99.90
2523;DHT22;1272;53.332;9.860;2022-08-20T07:40:59;21.20;99.90
2523;DHT22;1272;53.332;9.860;2022-08-20T07:43:25;21.30;99.90
2523;DHT22;1272;53.332;9.860;2022-08-20T07:45:53;21.40;99.90
2523;DHT22;1272;53.332;9.860;2022-08-20T07:48:25;21.40;1.00
2523;DHT22;1272;53.332;9.860;2022-08-20T07:50:54;21.20;21.70
2523;DHT22;1272;53.332;9.860;2022-08-20T07:53:20;21.30;41.60
2523;DHT22;1272;53.332;9.860;2022-08-20T07:55:46;21.30;1.00
2523;DHT22;1272;53.332;9.860;2022-08-20T07:58:14;21.40;1.00
2523;DHT22;1272;53.332;9.860;2022-08-20T08:00:41;21.60;1.00
2523;DHT22;1272;53.332;9.860;2022-08-20T08:03:07;21.70;99.90
2523;DHT22;1272;53.332;9.860;2022-08-20T08:05:36;21.80;1.00
2523;DHT22;1272;53.332;9.860;2022-08-20T08:08:06;21.80;87.30
2523;DHT22;1272;53.332;9.860;2022-08-20T08:10:36;21.70;99.90
2523;DHT22;1272;53.332;9.860;2022-08-20T08:13:05;21.80;1.00
2523;DHT22;1272;53.332;9.860;2022-08-20T08:15:34;22.00;99.90
2523;DHT22;1272;53.332;9.860;2022-08-20T08:18:08;22.00;99.90
2523;DHT22;1272;53.332;9.860;2022-08-20T08:20:38;22.00;99.90
2523;DHT22;1272;53.332;9.860;2022-08-20T08:23:05;22.10;99.90
2523;DHT22;1272;53.332;9.860;2022-08-20T08:25:32;22.10;1.00
2523;DHT22;1272;53.332;9.860;2022-08-20T08:27:58;22.20;1.00
2523;DHT22;1272;53.332;9.860;2022-08-20T08:30:25;22.20;1.00
2523;DHT22;1272;53.332;9.860;2022-08-20T08:32:51;22.30;99.90
2523;DHT22;1272;53.332;9.860;2022-08-20T08:35:37;22.40;99.90
2523;DHT22;1272;53.332;9.860;2022-08-20T08:38:03;22.40;99.90
2523;DHT22;1272;53.332;9.860;2022-08-20T08:40:30;22.50;99.90
2523;DHT22;1272;53.332;9.860;2022-08-20T08:42:59;22.40;47.30
2523;DHT22;1272;53.332;9.860;2022-08-20T08:45:43;22.50;99.90
2523;DHT22;1272;53.332;9.860;2022-08-20T08:48:18;22.60;1.00
2523;DHT22;1272;53.332;9.860;2022-08-20T08:50:48;22.60;1.00
2523;DHT22;1272;53.332;9.860;2022-08-20T08:53:19;22.70;1.00
2523;DHT22;1272;53.332;9.860;2022-08-20T08:55:46;22.70;1.00
2523;DHT22;1272;53.332;9.860;2022-08-20T08:58:12;22.80;99.90
2523;DHT22;1272;53.332;9.860;2022-08-20T09:00:38;22.70;99.90
2523;DHT22;1272;53.332;9.860;2022-08-20T09:03:07;22.70;1.00
2523;DHT22;1272;53.332;9.860;2022-08-20T09:05:50;22.70;1.00
2523;DHT22;1272;53.332;9.860;2022-08-20T09:08:21;22.70;1.00
2523;DHT22;1272;53.332;9.860;2022-08-20T09:10:49;22.70;99.90
2523;DHT22;1272;53.332;9.860;2022-08-20T09:13:15;22.70;99.90
2523;DHT22;1272;53.332;9.860;2022-08-20T09:15:41;22.80;99.90
2523;DHT22;1272;53.332;9.860;2022-08-20T09:18:06;22.90;99.90
2523;DHT22;1272;53.332;9.860;2022-08-20T09:20:33;23.10;99.90
2523;DHT22;1272;53.332;9.860;2022-08-20T09:22:59;23.20;99.90
2523;DHT22;1272;53.332;9.860;2022-08-20T09:25:25;23.20;1.00
2523;DHT22;1272;53.332;9.860;2022-08-20T09:27:51;23.30;1.00
2523;DHT22;1272;53.332;9.860;2022-08-20T09:30:17;23.30;99.90
2523;DHT22;1272;53.332;9.860;2022-08-20T09:32:43;23.20;1.00
2523;DHT22;1272;53.332;9.860;2022-08-20T09:35:09;23.30;99.90
2523;DHT22;1272;53.332;9.860;2022-08-20T09:37:35;23.40;99.90
2523;DHT22;1272;53.332;9.860;2022-08-20T09:40:01;23.50;99.90
2523;DHT22;1272;53.332;9.860;2022-08-20T09:42:29;23.80;19.30
2523;DHT22;1272;53.332;9.860;2022-08-20T09:44:56;24.00;1.00
2523;DHT22;1272;53.332;9.860;2022-08-20T09:47:23;24.10;99.90
2523;DHT22;1272;53.332;9.860;2022-08-20T09:49:49;24.00;1.00
2523;DHT22;1272;53.332;9.860;2022-08-20T09:52:23;24.00;1.00
2523;DHT22;1272;53.332;9.860;2022-08-20T09:54:51;24.00;1.00
2523;DHT22;1272;53.332;9.860;2022-08-20T09:57:19;23.90;1.00
2523;DHT22;1272;53.332;9.860;2022-08-20T09:59:52;24.00;1.00
2523;DHT22;1272;53.332;9.860;2022-08-20T10:02:19;24.00;1.00
2523;DHT22;1272;53.332;9.860;2022-08-20T10:04:45;24.00;1.00
2523;DHT22;1272;53.332;9.860;2022-08-20T10:07:10;24.00;1.00
2523;DHT22;1272;53.332;9.860;2022-08-20T10:09:36;24.20;1.00
2523;DHT22;1272;53.332;9.860;2022-08-20T10:12:03;24.30;1.00
2523;DHT22;1272;53.332;9.860;2022-08-20T10:14:29;24.20;1.00
2523;DHT22;1272;53.332;9.860;2022-08-20T10:17:00;24.30;1.00
2523;DHT22;1272;53.332;9.860;2022-08-20T10:19:29;24.40;1.00
2523;DHT22;1272;53.332;9.860;2022-08-20T10:21:56;24.30;1.00
2523;DHT22;1272;53.332;9.860;2022-08-20T10:24:22;24.30;1.00
2523;DHT22;1272;53.332;9.860;2022-08-20T10:26:49;24.40;1.00
2523;DHT22;1272;53.332;9.860;2022-08-20T10:29:16;24.60;99.90
2523;DHT22;1272;53.332;9.860;2022-08-20T10:31:48;24.80;99.90
2523;DHT22;1272;53.332;9.860;2022-08-20T10:34:14;24.80;99.90
2523;DHT22;1272;53.332;9.860;2022-08-20T10:36:41;24.70;99.90
2523;DHT22;1272;53.332;9.860;2022-08-20T10:39:07;24.80;99.90
2523;DHT22;1272;53.332;9.860;2022-08-20T10:41:33;24.80;99.90
2523;DHT22;1272;53.332;9.860;2022-08-20T10:43:58;24.80;99.90
2523;DHT22;1272;53.332;9.860;2022-08-20T10:46:24;24.80;99.90
2523;DHT22;1272;53.332;9.860;2022-08-20T10:48:50;24.80;99.90
2523;DHT22;1272;53.332;9.860;2022-08-20T10:51:15;24.90;99.90
2523;DHT22;1272;53.332;9.860;2022-08-20T10:53:42;24.70;99.90
2523;DHT22;1272;53.332;9.860;2022-08-20T10:56:08;24.70;99.90
2523;DHT22;1272;53.332;9.860;2022-08-20T10:58:33;24.60;99.90
2523;DHT22;1272;53.332;9.860;2022-08-20T11:00:59;24.70;99.90
2523;DHT22;1272;53.332;9.860;2022-08-20T11:03:25;24.60;99.90
2523;DHT22;1272;53.332;9.860;2022-08-20T11:05:50;24.50;99.90
2523;DHT22;1272;53.332;9.860;2022-08-20T11:08:16;24.50;99.90
2523;DHT22;1272;53.332;9.860;2022-08-20T11:10:42;24.60;99.90
2523;DHT22;1272;53.332;9.860;2022-08-20T11:13:10;24.70;99.90
2523;DHT22;1272;53.332;9.860;2022-08-20T11:15:39;24.60;99.90
2523;DHT22;1272;53.332;9.860;2022-08-20T11:18:05;24.40;99.90
2523;DHT22;1272;53.332;9.860;2022-08-20T11:20:31;24.30;99.90
2523;DHT22;1272;53.332;9.860;2022-08-20T11:22:58;24.30;99.90
2523;DHT22;1272;53.332;9.860;2022-08-20T11:25:25;24.30;99.90
2523;DHT22;1272;53.332;9.860;2022-08-20T11:27:52;24.30;99.90
2523;DHT22;1272;53.332;9.860;2022-08-20T11:30:21;24.40;99.90
2523;DHT22;1272;53.332;9.860;2022-08-20T11:32:47;24.40;1.00
2523;DHT22;1272;53.332;9.860;2022-08-20T11:35:13;24.50;1.00
2523;DHT22;1272;53.332;9.860;2022-08-20T11:37:39;24.50;99.90
2523;DHT22;1272;53.332;9.860;2022-08-20T11:40:05;24.50;99.90
2523;DHT22;1272;53.332;9.860;2022-08-20T11:42:34;24.60;99.90
2523;DHT22;1272;53.332;9.860;2022-08-20T11:44:59;24.80;99.90
2523;DHT22;1272;53.332;9.860;2022-08-20T11:47:29;25.00;99.90
2523;DHT22;1272;53.332;9.860;2022-08-20T11:50:02;24.90;99.90
2523;DHT22;1272;53.332;9.860;2022-08-20T11:52:29;25.00;99.90
2523;DHT22;1272;53.332;9.860;2022-08-20T11:54:55;25.00;99.90
2523;DHT22;1272;53.332;9.860;2022-08-20T11:57:22;25.10;99.90
2523;DHT22;1272;53.332;9.860;2022-08-20T11:59:53;25.00;99.90
2523;DHT22;1272;53.332;9.860;2022-08-20T12:02:19;25.20;99.90
2523;DHT22;1272;53.332;9.860;2022-08-20T12:04:45;25.30;99.90
2523;DHT22;1272;53.332;9.860;2022-08-20T12:07:13;25.30;99.90
2523;DHT22;1272;53.332;9.860;2022-08-20T12:09:40;25.30;99.90
2523;DHT22;1272;53.332;9.860;2022-08-20T12:12:07;25.20;99.90
2523;DHT22;1272;53.332;9.860;2022-08-20T12:14:33;25.20;99.90
2523;DHT22;1272;53.332;9.860;2022-08-20T12:17:29;25.00;99.90
2523;DHT22;1272;53.332;9.860;2022-08-20T12:19:56;24.90;99.90
2523;DHT22;1272;53.332;9.860;2022-08-20T12:22:22;24.90;99.90
2523;DHT22;1272;53.332;9.860;2022-08-20T12:24:48;24.90;99.90
2523;DHT22;1272;53.332;9.860;2022-08-20T12:27:28;25.00;99.90
2523;DHT22;1272;53.332;9.860;2022-08-20T12:29:56;25.20;99.90
2523;DHT22;1272;53.332;9.860;2022-08-20T12:32:26;25.30;99.90
2523;DHT22;1272;53.332;9.860;2022-08-20T12:34:52;25.20;99.90
2523;DHT22;1272;53.332;9.860;2022-08-20T12:37:21;25.10;92.40
2523;DHT22;1272;53.332;9.860;2022-08-20T12:39:50;25.00;86.80
2523;DHT22;1272;53.332;9.860;2022-08-20T12:42:16;25.30;80.90
2523;DHT22;1272;53.332;9.860;2022-08-20T12:44:43;25.60;55.60
2523;DHT22;1272;53.332;9.860;2022-08-20T12:47:30;26.00;52.30
2523;DHT22;1272;53.332;9.860;2022-08-20T12:49:58;26.30;23.10
2523;DHT22;1272;53.332;9.860;2022-08-20T12:52:28;26.50;1.00
2523;DHT22;1272;53.332;9.860;2022-08-20T12:54:55;26.40;1.00
2523;DHT22;1272;53.332;9.860;2022-08-20T12:57:32;26.60;1.00
2523;DHT22;1272;53.332;9.860;2022-08-20T13:00:05;26.50;1.00
2523;DHT22;1272;53.332;9.860;2022-08-20T13:02:32;26.50;1.00
2523;DHT22;1272;53.332;9.860;2022-08-20T13:04:57;26.60;1.00
2523;DHT22;1272;53.332;9.860;2022-08-20T13:07:23;26.50;1.00
2523;DHT22;1272;53.332;9.860;2022-08-20T13:09:49;26.50;1.00
2523;DHT22;1272;53.332;9.860;2022-08-20T13:12:15;26.80;1.00
2523;DHT22;1272;53.332;9.860;2022-08-20T13:14:41;26.90;1.00
2523;DHT22;1272;53.332;9.860;2022-08-20T13:17:07;27.10;1.00
2523;DHT22;1272;53.332;9.860;2022-08-20T13:19:35;27.30;1.00
2523;DHT22;1272;53.332;9.860;2022-08-20T13:22:01;27.50;1.00
2523;DHT22;1272;53.332;9.860;2022-08-20T13:24:27;27.50;1.00
2523;DHT22;1272;53.332;9.860;2022-08-20T13:26:53;27.60;1.00
2523;DHT22;1272;53.332;9.860;2022-08-20T13:29:19;27.70;1.00
2523;DHT22;1272;53.332;9.860;2022-08-20T13:31:45;27.70;1.00
2523;DHT22;1272;53.332;9.860;2022-08-20T13:34:11;27.70;1.00
2523;DHT22;1272;53.332;9.860;2022-08-20T13:36:38;27.60;1.00
2523;DHT22;1272;53.332;9.860;2022-08-20T13:39:05;27.30;1.00
2523;DHT22;1272;53.332;9.860;2022-08-20T13:41:32;27.00;1.00
2523;DHT22;1272;53.332;9.860;2022-08-20T13:43:58;26.80;1.00
2523;DHT22;1272;53.332;9.860;2022-08-20T13:46:24;26.70;1.00
2523;DHT22;1272;53.332;9.860;2022-08-20T13:48:49;26.70;1.00
2523;DHT22;1272;53.332;9.860;2022-08-20T13:51:15;26.70;1.00
2523;DHT22;1272;53.332;9.860;2022-08-20T13:53:41;26.90;1.00
2523;DHT22;1272;53.332;9.860;2022-08-20T13:56:06;27.00;1.00
2523;DHT22;1272;53.332;9.860;2022-08-20T13:58:32;27.20;1.00
2523;DHT22;1272;53.332;9.860;2022-08-20T14:00:58;27.40;1.00
2523;DHT22;1272;53.332;9.860;2022-08-20T14:03:24;27.60;1.00
2523;DHT22;1272;53.332;9.860;2022-08-20T14:05:50;27.60;1.00
2523;DHT22;1272;53.332;9.860;2022-08-20T14:08:19;27.50;1.00
2523;DHT22;1272;53.332;9.860;2022-08-20T14:10:46;27.60;1.00
2523;DHT22;1272;53.332;9.860;2022-08-20T14:13:15;27.70;1.00
2523;DHT22;1272;53.332;9.860;2022-08-20T14:15:42;27.60;1.00
2523;DHT22;1272;53.332;9.860;2022-08-20T14:18:08;27.60;1.00
2523;DHT22;1272;53.332;9.860;2022-08-20T14:20:34;27.50;1.00
2523;DHT22;1272;53.332;9.860;2022-08-20T14:23:00;27.60;1.00
2523;DHT22;1272;53.332;9.860;2022-08-20T14:25:27;27.50;1.00
2523;DHT22;1272;53.332;9.860;2022-08-20T14:27:53;27.40;1.00
2523;DHT22;1272;53.332;9.860;2022-08-20T14:30:22;27.40;1.00
2523;DHT22;1272;53.332;9.860;2022-08-20T14:32:49;27.60;1.00
2523;DHT22;1272;53.332;9.860;2022-08-20T14:35:14;27.80;1.00
2523;DHT22;1272;53.332;9.860;2022-08-20T14:37:43;27.90;1.00
2523;DHT22;1272;53.332;9.860;2022-08-20T14:40:13;28.10;1.00
2523;DHT22;1272;53.332;9.860;2022-08-20T14:42:40;27.90;1.00
2523;DHT22;1272;53.332;9.860;2022-08-20T14:45:08;27.90;1.00
2523;DHT22;1272;53.332;9.860;2022-08-20T14:47:37;28.00;1.00
2523;DHT22;1272;53.332;9.860;2022-08-20T14:50:10;28.00;1.00
2523;DHT22;1272;53.332;9.860;2022-08-20T14:52:36;27.90;1.00
2523;DHT22;1272;53.332;9.860;2022-08-20T14:55:12;27.90;1.00
2523;DHT22;1272;53.332;9.860;2022-08-20T14:57:39;27.90;1.00
2523;DHT22;1272;53.332;9.860;2022-08-20T15:00:08;28.10;1.00
2523;DHT22;1272;53.332;9.860;2022-08-20T15:02:36;28.40;1.00
2523;DHT22;1272;53.332;9.860;2022-08-20T15:05:03;28.40;1.00
2523;DHT22;1272;53.332;9.860;2022-08-20T15:07:32;28.50;1.00
2523;DHT22;1272;53.332;9.860;2022-08-20T15:10:00;28.70;1.00
2523;DHT22;1272;53.332;9.860;2022-08-20T15:12:27;28.60;1.00
2523;DHT22;1272;53.332;9.860;2022-08-20T15:14:53;28.60;1.00
2523;DHT22;1272;53.332;9.860;2022-08-20T15:17:26;28.40;1.00
2523;DHT22;1272;53.332;9.860;2022-08-20T15:19:52;28.30;1.00
2523;DHT22;1272;53.332;9.860;2022-08-20T15:22:19;28.40;1.00
2523;DHT22;1272;53.332;9.860;2022-08-20T15:24:45;28.30;1.00
2523;DHT22;1272;53.332;9.860;2022-08-20T15:27:19;28.30;1.00
2523;DHT22;1272;53.332;9.860;2022-08-20T15:29:46;28.40;1.00
2523;DHT22;1272;53.332;9.860;2022-08-20T15:32:11;28.60;1.00
2523;DHT22;1272;53.332;9.860;2022-08-20T15:34:38;28.90;1.00
2523;DHT22;1272;53.332;9.860;2022-08-20T15:37:08;29.00;1.00
2523;DHT22;1272;53.332;9.860;2022-08-20T15:39:34;29.20;1.00
2523;DHT22;1272;53.332;9.860;2022-08-20T15:42:00;29.00;1.00
2523;DHT22;1272;53.332;9.860;2022-08-20T15:44:26;29.00;1.00
2523;DHT22;1272;53.332;9.860;2022-08-20T15:46:51;29.10;1.00
2523;DHT22;1272;53.332;9.860;2022-08-20T15:49:17;28.90;1.00
2523;DHT22;1272;53.332;9.860;2022-08-20T15:51:47;28.90;1.00
2523;DHT22;1272;53.332;9.860;2022-08-20T15:54:24;28.80;1.00
2523;DHT22;1272;53.332;9.860;2022-08-20T16:14:02;29.00;1.00
2523;DHT22;1272;53.332;9.860;2022-08-20T16:16:41;28.90;1.00
2523;DHT22;1272;53.332;9.860;2022-08-20T16:19:14;28.90;1.00
2523;DHT22;1272;53.332;9.860;2022-08-20T16:21:43;28.70;1.00
2523;DHT22;1272;53.332;9.860;2022-08-20T16:24:09;28.70;1.00
2523;DHT22;1272;53.332;9.860;2022-08-20T16:26:48;28.70;1.00
2523;DHT22;1272;53.332;9.860;2022-08-20T16:29:32;28.50;1.00
2523;DHT22;1272;53.332;9.860;2022-08-20T16:32:06;28.10;1.00
2523;DHT22;1272;53.332;9.860;2022-08-20T16:34:41;27.60;1.00